sensor_id;sensor_type;location;lat;lon;timestamp;pressure;altitude;pressure_sealevel;temperature;humidity
9257;BME280;4665;51.368;6.782;2022-12-18T00:00:55;102564.28;;;-7.02;100.00
9257;BME280;4665;51.368;6.782;2022-12-18T00:03:20;102546.16;;;-7.01;100.00
9257;BME280;4665;51.368;6.782;2022-12-18T00:05:50;102563.41;;;-6.87;100.00
9257;BME280;4665;51.368;6.782;2022-12-18T00:08:16;102550.47;;;-6.89;100.00
9257;BME280;4665;51.368;6.782;2022-12-18T00:10:42;102560.84;;;-6.70;100.00
9257;BME280;4665;51.368;6.782;2022-12-18T00:13:07;102572.06;;;-6.53;100.00
9257;BME280;4665;51.368;6.782;2022-12-18T00:15:38;102566.84;;;-6.44;100.00
9257;BME280;4665;51.368;6.782;2022-12-18T00:18:04;102564.25;;;-6.35;100.00
9257;BME280;4665;51.368;6.782;2022-12-18T00:20:30;102559.91;;;-6.32;100.00
9257;BME280;4665;51.368;6.782;2022-12-18T00:22:55;102547.81;;;-6.37;100.00
9257;BME280;4665;51.368;6.782;2022-12-18T00:25:21;102540.91;;;-6.28;100.00
9257;BME280;4665;51.368;6.782;2022-12-18T00:27:46;102557.28;;;-6.08;100.00
9257;BME280;4665;51.368;6.782;2022-12-18T00:30:12;102561.56;;;-6.02;100.00
9257;BME280;4665;51.368;6.782;2022-12-18T00:32:37;102546.88;;;-6.05;100.00
9257;BME280;4665;51.368;6.782;2022-12-18T00:35:04;102552.91;;;-6.01;100.00
9257;BME280;4665;51.368;6.782;2022-12-18T00:37:30;102540.84;;;-6.05;100.00
9257;BME280;4665;51.368;6.782;2022-12-18T00:39:55;102526.97;;;-6.10;100.00
9257;BME280;4665;51.368;6.782;2022-12-18T00:42:20;102535.56;;;-5.95;100.00
9257;BME280;4665;51.368;6.782;2022-12-18T00:45:04;102545.91;;;-5.82;100.00
9257;BME280;4665;51.368;6.782;2022-12-18T00:47:30;102543.28;;;-5.81;100.00
9257;BME280;4665;51.368;6.782;2022-12-18T00:49:56;102546.72;;;-5.74;100.00
9257;BME280;4665;51.368;6.782;2022-12-18T00:52:21;102530.28;;;-5.79;100.00
9257;BME280;4665;51.368;6.782;2022-12-18T00:54:46;102555.28;;;-5.60;100.00
9257;BME280;4665;51.368;6.782;2022-12-18T00:57:12;102549.22;;;-5.57;100.00
9257;BME280;4665;51.368;6.782;2022-12-18T00:59:37;102545.75;;;-5.52;100.00
9257;BME280;4665;51.368;6.782;2022-12-18T01:02:03;102550.91;;;-5.47;100.00
9257;BME280;4665;51.368;6.782;2022-12-18T01:04:31;102549.16;;;-5.45;100.00
9257;BME280;4665;51.368;6.782;2022-12-18T01:06:56;102542.22;;;-5.44;100.00
9257;BME280;4665;51.368;6.782;2022-12-18T01:09:22;102536.19;;;-5.46;100.00
9257;BME280;4665;51.368;6.782;2022-12-18T01:11:47;102546.53;;;-5.43;100.00
9257;BME280;4665;51.368;6.782;2022-12-18T01:14:12;102524.97;;;-5.52;100.00
9257;BME280;4665;51.368;6.782;2022-12-18T01:16:38;102551.69;;;-5.34;100.00
9257;BME280;4665;51.368;6.782;2022-12-18T01:19:03;102536.13;;;-5.37;100.00
9257;BME280;4665;51.368;6.782;2022-12-18T01:21:29;102522.31;;;-5.42;100.00
9257;BME280;4665;51.368;6.782;2022-12-18T01:23:55;102527.47;;;-5.39;100.00
9257;BME280;4665;51.368;6.782;2022-12-18T01:26:21;102529.16;;;-5.32;100.00
9257;BME280;4665;51.368;6.782;2022-12-18T01:28:47;102536.03;;;-5.25;100.00
9257;BME280;4665;51.368;6.782;2022-12-18T01:31:21;102542.94;;;-5.21;100.00
9257;BME280;4665;51.368;6.782;2022-12-18T01:33:47;102539.47;;;-5.17;100.00
9257;BME280;4665;51.368;6.782;2022-12-18T01:36:22;102542.06;;;-5.17;100.00
9257;BME280;4665;51.368;6.782;2022-12-18T01:38:50;102544.59;;;-5.11;100.00
9257;BME280;4665;51.368;6.782;2022-12-18T01:41:17;102506.59;;;-5.24;100.00
9257;BME280;4665;51.368;6.782;2022-12-18T01:43:52;102510.03;;;-5.22;100.00
9257;BME280;4665;51.368;6.782;2022-12-18T01:46:19;102509.16;;;-5.19;100.00
9257;BME280;4665;51.368;6.782;2022-12-18T01:48:47;102510.88;;;-5.18;100.00
9257;BME280;4665;51.368;6.782;2022-12-18T01:51:14;102520.38;;;-5.13;100.00
9257;BME280;4665;51.368;6.782;2022-12-18T01:53:41;102526.41;;;-5.11;100.00
9257;BME280;4665;51.368;6.782;2022-12-18T01:56:08;102541.06;;;-5.02;100.00
9257;BME280;4665;51.368;6.782;2022-12-18T01:58:54;102543.66;;;-4.99;100.00
9257;BME280;4665;51.368;6.782;2022-12-18T02:01:22;102548.88;;;-5.02;100.00
9257;BME280;4665;51.368;6.782;2022-12-18T02:03:48;102550.56;;;-4.98;100.00
9257;BME280;4665;51.368;6.782;2022-12-18T02:06:31;102559.25;;;-4.99;100.00
9257;BME280;4665;51.368;6.782;2022-12-18T02:09:07;102555.72;;;-4.90;100.00
9257;BME280;4665;51.368;6.782;2022-12-18T02:12:11;102553.09;;;-4.90;100.00
9257;BME280;4665;51.368;6.782;2022-12-18T02:14:42;102560.03;;;-4.89;100.00
9257;BME280;4665;51.368;6.782;2022-12-18T02:17:23;102543.63;;;-4.96;100.00
9257;BME280;4665;51.368;6.782;2022-12-18T02:25:26;102550.50;;;-4.87;100.00
9257;BME280;4665;51.368;6.782;2022-12-18T02:27:57;102542.69;;;-4.87;100.00
9257;BME280;4665;51.368;6.782;2022-12-18T02:30:26;102532.25;;;-4.84;100.00
9257;BME280;4665;51.368;6.782;2022-12-18T02:32:55;102528.78;;;-4.81;100.00
9257;BME280;4665;51.368;6.782;2022-12-18T02:35:26;102523.59;;;-4.84;100.00
9257;BME280;4665;51.368;6.782;2022-12-18T02:37:54;102521.88;;;-4.86;100.00
9257;BME280;4665;51.368;6.782;2022-12-18T02:40:22;102500.25;;;-4.92;100.00
9257;BME280;4665;51.368;6.782;2022-12-18T02:42:48;102513.16;;;-4.80;100.00
9257;BME280;4665;51.368;6.782;2022-12-18T02:45:14;102533.00;;;-4.71;100.00
9257;BME280;4665;51.368;6.782;2022-12-18T02:47:42;102538.19;;;-4.70;100.00
9257;BME280;4665;51.368;6.782;2022-12-18T02:58:17;102535.47;;;-4.57;100.00
9257;BME280;4665;51.368;6.782;2022-12-18T03:00:53;102533.78;;;-4.60;100.00
9257;BME280;4665;51.368;6.782;2022-12-18T03:03:38;102535.50;;;-4.59;100.00
9257;BME280;4665;51.368;6.782;2022-12-18T03:06:25;102543.31;;;-4.59;100.00
9257;BME280;4665;51.368;6.782;2022-12-18T03:08:57;102534.66;;;-4.62;100.00
9257;BME280;4665;51.368;6.782;2022-12-18T03:11:26;102525.16;;;-4.67;100.00
9257;BME280;4665;51.368;6.782;2022-12-18T03:14:15;102530.31;;;-4.60;100.00
9257;BME280;4665;51.368;6.782;2022-12-18T03:16:43;102521.66;;;-4.59;100.00
9257;BME280;4665;51.368;6.782;2022-12-18T03:19:15;102518.16;;;-4.60;100.00
9257;BME280;4665;51.368;6.782;2022-12-18T03:21:45;102518.09;;;-4.54;100.00
9257;BME280;4665;51.368;6.782;2022-12-18T03:24:11;102494.84;;;-4.69;100.00
9257;BME280;4665;51.368;6.782;2022-12-18T03:26:40;102488.75;;;-4.67;100.00
9257;BME280;4665;51.368;6.782;2022-12-18T03:29:27;102488.75;;;-4.67;100.00
9257;BME280;4665;51.368;6.782;2022-12-18T03:32:02;102518.16;;;-4.57;100.00
9257;BME280;4665;51.368;6.782;2022-12-18T03:34:32;102500.94;;;-4.70;100.00
9257;BME280;4665;51.368;6.782;2022-12-18T03:36:58;102527.63;;;-4.50;100.00
9257;BME280;4665;51.368;6.782;2022-12-18T03:39:24;102500.88;;;-4.64;100.00
9257;BME280;4665;51.368;6.782;2022-12-18T03:41:59;102519.81;;;-4.51;100.00
9257;BME280;4665;51.368;6.782;2022-12-18T03:44:40;102519.78;;;-4.48;100.00
9257;BME280;4665;51.368;6.782;2022-12-18T03:47:40;102519.72;;;-4.42;100.00
9257;BME280;4665;51.368;6.782;2022-12-18T03:55:37;102514.38;;;-4.30;100.00
9257;BME280;4665;51.368;6.782;2022-12-18T03:58:06;102516.13;;;-4.32;100.00
9257;BME280;4665;51.368;6.782;2022-12-18T04:00:33;102517.03;;;-4.33;100.00
9257;BME280;4665;51.368;6.782;2022-12-18T04:03:00;102495.50;;;-4.47;100.00
9257;BME280;4665;51.368;6.782;2022-12-18T04:05:28;102499.75;;;-4.41;100.00
9257;BME280;4665;51.368;6.782;2022-12-18T04:07:55;102504.06;;;-4.37;100.00
9257;BME280;4665;51.368;6.782;2022-12-18T04:10:22;102499.75;;;-4.38;100.00
9257;BME280;4665;51.368;6.782;2022-12-18T04:12:47;102488.53;;;-4.45;100.00
9257;BME280;4665;51.368;6.782;2022-12-18T04:15:14;102480.78;;;-4.50;100.00
9257;BME280;4665;51.368;6.782;2022-12-18T04:17:46;102483.38;;;-4.50;100.00
9257;BME280;4665;51.368;6.782;2022-12-18T04:20:12;102497.22;;;-4.46;100.00
9257;BME280;4665;51.368;6.782;2022-12-18T04:22:37;102469.63;;;-4.62;100.00
9257;BME280;4665;51.368;6.782;2022-12-18T04:25:03;102480.88;;;-4.60;100.00
9257;BME280;4665;51.368;6.782;2022-12-18T04:27:29;102494.75;;;-4.58;100.00
9257;BME280;4665;51.368;6.782;2022-12-18T04:29:54;102480.97;;;-4.68;100.00
9257;BME280;4665;51.368;6.782;2022-12-18T04:32:19;102476.72;;;-4.75;100.00
9257;BME280;4665;51.368;6.782;2022-12-18T04:34:45;102480.16;;;-4.75;100.00
9257;BME280;4665;51.368;6.782;2022-12-18T04:37:10;102488.88;;;-4.79;100.00
9257;BME280;4665;51.368;6.782;2022-12-18T04:39:36;102486.31;;;-4.85;100.00
9257;BME280;4665;51.368;6.782;2022-12-18T04:42:02;102474.28;;;-4.94;100.00
9257;BME280;4665;51.368;6.782;2022-12-18T04:44:27;102478.63;;;-4.97;100.00
9257;BME280;4665;51.368;6.782;2022-12-18T04:46:52;102468.28;;;-5.00;100.00
9257;BME280;4665;51.368;6.782;2022-12-18T04:49:18;102463.06;;;-5.02;100.00
9257;BME280;4665;51.368;6.782;2022-12-18T04:51:43;102460.56;;;-5.10;100.00
9257;BME280;4665;51.368;6.782;2022-12-18T04:54:09;102466.59;;;-5.08;100.00
9257;BME280;4665;51.368;6.782;2022-12-18T04:56:34;102470.06;;;-5.05;100.00
9257;BME280;4665;51.368;6.782;2022-12-18T04:58:59;102468.31;;;-5.07;100.00
9257;BME280;4665;51.368;6.782;2022-12-18T05:01:25;102465.84;;;-5.20;100.00
9257;BME280;4665;51.368;6.782;2022-12-18T05:03:51;102458.16;;;-5.34;100.00
9257;BME280;4665;51.368;6.782;2022-12-18T05:06:17;102464.25;;;-5.38;100.00
9257;BME280;4665;51.368;6.782;2022-12-18T05:08:42;102442.72;;;-5.57;100.00
9257;BME280;4665;51.368;6.782;2022-12-18T05:11:10;102458.31;;;-5.54;100.00
9257;BME280;4665;51.368;6.782;2022-12-18T05:13:36;102436.81;;;-5.81;100.00
9257;BME280;4665;51.368;6.782;2022-12-18T05:16:03;102438.59;;;-5.87;100.00
9257;BME280;4665;51.368;6.782;2022-12-18T05:18:29;102464.53;;;-5.80;100.00
9257;BME280;4665;51.368;6.782;2022-12-18T05:20:55;102468.00;;;-5.85;100.00
9257;BME280;4665;51.368;6.782;2022-12-18T05:23:22;102437.91;;;-6.08;100.00
9257;BME280;4665;51.368;6.782;2022-12-18T05:26:06;102464.69;;;-6.04;100.00
9257;BME280;4665;51.368;6.782;2022-12-18T05:28:34;102456.09;;;-6.17;100.00
9257;BME280;4665;51.368;6.782;2022-12-18T05:31:01;102460.44;;;-6.25;100.00
9257;BME280;4665;51.368;6.782;2022-12-18T05:33:30;102458.75;;;-6.32;100.00
9257;BME280;4665;51.368;6.782;2022-12-18T05:35:58;102464.78;;;-6.33;100.00
9257;BME280;4665;51.368;6.782;2022-12-18T05:38:27;102483.81;;;-6.30;100.00
9257;BME280;4665;51.368;6.782;2022-12-18T05:40:53;102463.09;;;-6.39;100.00
9257;BME280;4665;51.368;6.782;2022-12-18T05:43:19;102452.75;;;-6.53;100.00
9257;BME280;4665;51.368;6.782;2022-12-18T05:45:46;102473.47;;;-6.45;100.00
9257;BME280;4665;51.368;6.782;2022-12-18T05:48:12;102455.38;;;-6.61;100.00
9257;BME280;4665;51.368;6.782;2022-12-18T05:50:39;102479.56;;;-6.54;100.00
9257;BME280;4665;51.368;6.782;2022-12-18T05:53:06;102472.66;;;-6.64;100.00
9257;BME280;4665;51.368;6.782;2022-12-18T05:55:35;102494.25;;;-6.58;100.00
9257;BME280;4665;51.368;6.782;2022-12-18T05:58:03;102491.69;;;-6.65;100.00
9257;BME280;4665;51.368;6.782;2022-12-18T06:00:29;102493.41;;;-6.67;100.00
9257;BME280;4665;51.368;6.782;2022-12-18T06:02:55;102483.91;;;-6.76;100.00
9257;BME280;4665;51.368;6.782;2022-12-18T06:05:20;102496.03;;;-6.72;100.00
9257;BME280;4665;51.368;6.782;2022-12-18T06:07:46;102488.28;;;-6.84;100.00
9257;BME280;4665;51.368;6.782;2022-12-18T06:10:11;102521.94;;;-6.77;100.00
9257;BME280;4665;51.368;6.782;2022-12-18T06:12:37;102521.09;;;-6.83;100.00
9257;BME280;4665;51.368;6.782;2022-12-18T06:15:04;102507.28;;;-6.93;100.00
9257;BME280;4665;51.368;6.782;2022-12-18T06:17:31;102532.31;;;-6.92;100.00
9257;BME280;4665;51.368;6.782;2022-12-18T06:19:57;102511.59;;;-7.03;100.00
9257;BME280;4665;51.368;6.782;2022-12-18T06:22:23;102542.69;;;-6.92;100.00
9257;BME280;4665;51.368;6.782;2022-12-18T06:24:48;102524.53;;;-7.04;100.00
9257;BME280;4665;51.368;6.782;2022-12-18T06:27:14;102509.00;;;-7.10;100.00
9257;BME280;4665;51.368;6.782;2022-12-18T06:29:39;102499.50;;;-7.13;100.00
9257;BME280;4665;51.368;6.782;2022-12-18T06:32:05;102511.59;;;-7.07;100.00
9257;BME280;4665;51.368;6.782;2022-12-18T06:34:31;102509.84;;;-7.08;100.00
9257;BME280;4665;51.368;6.782;2022-12-18T06:36:57;102482.22;;;-7.28;100.00
9257;BME280;4665;51.368;6.782;2022-12-18T06:39:23;102480.50;;;-7.30;100.00
9257;BME280;4665;51.368;6.782;2022-12-18T06:41:48;102478.75;;;-7.36;100.00
9257;BME280;4665;51.368;6.782;2022-12-18T06:44:14;102495.19;;;-7.28;100.00
9257;BME280;4665;51.368;6.782;2022-12-18T06:46:39;102478.78;;;-7.30;100.00
9257;BME280;4665;51.368;6.782;2022-12-18T06:49:05;102488.25;;;-7.29;100.00
9257;BME280;4665;51.368;6.782;2022-12-18T06:51:30;102490.00;;;-7.28;100.00
9257;BME280;4665;51.368;6.782;2022-12-18T06:53:55;102482.22;;;-7.29;100.00
9257;BME280;4665;51.368;6.782;2022-12-18T06:56:21;102475.31;;;-7.35;100.00
9257;BME280;4665;51.368;6.782;2022-12-18T06:58:47;102454.56;;;-7.38;100.00
9257;BME280;4665;51.368;6.782;2022-12-18T07:01:13;102458.91;;;-7.32;100.00
9257;BME280;4665;51.368;6.782;2022-12-18T07:03:40;102439.91;;;-7.48;100.00
9257;BME280;4665;51.368;6.782;2022-12-18T07:06:06;102430.41;;;-7.48;100.00
9257;BME280;4665;51.368;6.782;2022-12-18T07:08:40;102443.38;;;-7.46;100.00
9257;BME280;4665;51.368;6.782;2022-12-18T07:11:06;102462.34;;;-7.41;100.00
9257;BME280;4665;51.368;6.782;2022-12-18T07:13:31;102469.25;;;-7.34;100.00
9257;BME280;4665;51.368;6.782;2022-12-18T07:16:07;102465.81;;;-7.30;100.00
9257;BME280;4665;51.368;6.782;2022-12-18T07:18:33;102462.38;;;-7.27;100.00
9257;BME280;4665;51.368;6.782;2022-12-18T07:21:02;102454.59;;;-7.29;100.00
9257;BME280;4665;51.368;6.782;2022-12-18T07:23:28;102467.53;;;-7.04;100.00
9257;BME280;4665;51.368;6.782;2022-12-18T07:25:53;102452.00;;;-6.95;100.00
9257;BME280;4665;51.368;6.782;2022-12-18T07:28:19;102472.69;;;-6.66;100.00
9257;BME280;4665;51.368;6.782;2022-12-18T07:30:44;102453.63;;;-6.57;100.00
9257;BME280;4665;51.368;6.782;2022-12-18T07:33:09;102448.38;;;-6.34;100.00
9257;BME280;4665;51.368;6.782;2022-12-18T07:35:35;102455.19;;;-6.10;100.00
9257;BME280;4665;51.368;6.782;2022-12-18T07:38:00;102429.13;;;-5.93;100.00
9257;BME280;4665;51.368;6.782;2022-12-18T07:40:26;102435.13;;;-5.86;100.00
9257;BME280;4665;51.368;6.782;2022-12-18T07:42:51;102435.91;;;-5.71;100.00
9257;BME280;4665;51.368;6.782;2022-12-18T07:45:17;102442.72;;;-5.54;100.00
9257;BME280;4665;51.368;6.782;2022-12-18T07:47:42;102454.75;;;-5.42;100.00
9257;BME280;4665;51.368;6.782;2022-12-18T07:50:08;102448.63;;;-5.34;100.00
9257;BME280;4665;51.368;6.782;2022-12-18T07:52:33;102466.66;;;-5.14;100.00
9257;BME280;4665;51.368;6.782;2022-12-18T07:54:58;102446.66;;;-5.09;100.00
9257;BME280;4665;51.368;6.782;2022-12-18T07:57:24;102469.00;;;-4.84;100.00
9257;BME280;4665;51.368;6.782;2022-12-18T07:59:49;102440.44;;;-4.92;100.00
9257;BME280;4665;51.368;6.782;2022-12-18T08:02:15;102448.19;;;-4.84;100.00
9257;BME280;4665;51.368;6.782;2022-12-18T08:04:40;102435.09;;;-4.77;100.00
9257;BME280;4665;51.368;6.782;2022-12-18T08:07:05;102423.81;;;-4.74;100.00
9257;BME280;4665;51.368;6.782;2022-12-18T08:09:31;102432.34;;;-4.63;100.00
9257;BME280;4665;51.368;6.782;2022-12-18T08:11:56;102426.25;;;-4.62;100.00
9257;BME280;4665;51.368;6.782;2022-12-18T08:14:22;102425.22;;;-4.46;100.00
9257;BME280;4665;51.368;6.782;2022-12-18T08:16:48;102411.34;;;-4.46;100.00
9257;BME280;4665;51.368;6.782;2022-12-18T08:19:13;102400.91;;;-4.43;100.00
9257;BME280;4665;51.368;6.782;2022-12-18T08:21:41;102402.56;;;-4.37;100.00
9257;BME280;4665;51.368;6.782;2022-12-18T08:24:08;102410.28;;;-4.30;100.00
9257;BME280;4665;51.368;6.782;2022-12-18T08:26:34;102389.56;;;-4.36;100.00
9257;BME280;4665;51.368;6.782;2022-12-18T08:29:00;102398.03;;;-4.21;100.00
9257;BME280;4665;51.368;6.782;2022-12-18T08:31:27;102379.81;;;-4.20;100.00
9257;BME280;4665;51.368;6.782;2022-12-18T08:33:53;102370.19;;;-4.16;100.00
9257;BME280;4665;51.368;6.782;2022-12-18T08:36:19;102394.16;;;-3.93;100.00
9257;BME280;4665;51.368;6.782;2022-12-18T08:38:45;102375.22;;;-4.04;100.00
9257;BME280;4665;51.368;6.782;2022-12-18T08:41:13;102383.75;;;-3.93;100.00
9257;BME280;4665;51.368;6.782;2022-12-18T08:43:39;102395.84;;;-3.89;100.00
9257;BME280;4665;51.368;6.782;2022-12-18T08:46:25;102404.44;;;-3.84;100.00
9257;BME280;4665;51.368;6.782;2022-12-18T08:48:53;102409.56;;;-3.79;100.00
9257;BME280;4665;51.368;6.782;2022-12-18T08:51:19;102411.25;;;-3.73;100.00
9257;BME280;4665;51.368;6.782;2022-12-18T08:53:45;102384.44;;;-3.80;100.00
9257;BME280;4665;51.368;6.782;2022-12-18T08:56:12;102385.22;;;-3.76;100.00
9257;BME280;4665;51.368;6.782;2022-12-18T08:58:38;102383.31;;;-3.65;100.00
9257;BME280;4665;51.368;6.782;2022-12-18T09:01:05;102394.34;;;-3.49;100.00
9257;BME280;4665;51.368;6.782;2022-12-18T09:03:31;102391.69;;;-3.46;100.00
9257;BME280;4665;51.368;6.782;2022-12-18T09:05:59;102372.59;;;-3.47;100.00
9257;BME280;4665;51.368;6.782;2022-12-18T09:08:27;102369.75;;;-3.31;100.00
9257;BME280;4665;51.368;6.782;2022-12-18T09:10:53;102373.88;;;-3.21;100.00
9257;BME280;4665;51.368;6.782;2022-12-18T09:13:27;102358.34;;;-3.27;100.00
9257;BME280;4665;51.368;6.782;2022-12-18T09:15:55;102366.13;;;-3.24;100.00
9257;BME280;4665;51.368;6.782;2022-12-18T09:18:22;102372.97;;;-3.19;100.00
9257;BME280;4665;51.368;6.782;2022-12-18T09:20:48;102378.00;;;-3.06;100.00
9257;BME280;4665;51.368;6.782;2022-12-18T09:23:15;102370.00;;;-2.99;100.00
9257;BME280;4665;51.368;6.782;2022-12-18T09:25:40;102364.72;;;-2.96;100.00
9257;BME280;4665;51.368;6.782;2022-12-18T09:28:11;102375.72;;;-2.78;100.00
9257;BME280;4665;51.368;6.782;2022-12-18T09:30:38;102364.47;;;-2.83;100.00
9257;BME280;4665;51.368;6.782;2022-12-18T09:33:04;102365.31;;;-2.80;100.00
9257;BME280;4665;51.368;6.782;2022-12-18T09:35:35;102361.75;;;-2.76;100.00
9257;BME280;4665;51.368;6.782;2022-12-18T09:38:03;102363.25;;;-2.64;100.00
9257;BME280;4665;51.368;6.782;2022-12-18T09:40:39;102392.38;;;-2.42;100.00
9257;BME280;4665;51.368;6.782;2022-12-18T09:43:57;102380.22;;;-2.43;100.00
9257;BME280;4665;51.368;6.782;2022-12-18T09:46:02;102379.72;;;-2.20;100.00
9257;BME280;4665;51.368;6.782;2022-12-18T09:48:41;102356.16;;;-2.18;100.00
9257;BME280;4665;51.368;6.782;2022-12-18T09:51:22;102338.88;;;-2.22;100.00
9257;BME280;4665;51.368;6.782;2022-12-18T09:53:54;102352.47;;;-2.08;100.00
9257;BME280;4665;51.368;6.782;2022-12-18T09:56:31;102344.63;;;-2.06;100.00
9257;BME280;4665;51.368;6.782;2022-12-18T09:59:09;102333.25;;;-2.05;100.00
9257;BME280;4665;51.368;6.782;2022-12-18T10:02:19;102358.97;;;-1.87;100.00
9257;BME280;4665;51.368;6.782;2022-12-18T10:05:04;102342.44;;;-1.89;100.00
9257;BME280;4665;51.368;6.782;2022-12-18T10:07:52;102359.59;;;-1.77;100.00
9257;BME280;4665;51.368;6.782;2022-12-18T10:10:36;102354.13;;;-1.66;100.00
9257;BME280;4665;51.368;6.782;2022-12-18T10:21:13;102342.03;;;-1.36;100.00
9257;BME280;4665;51.368;6.782;2022-12-18T10:26:27;102301.19;;;-1.42;100.00
9257;BME280;4665;51.368;6.782;2022-12-18T10:28:53;102318.28;;;-1.29;100.00
9257;BME280;4665;51.368;6.782;2022-12-18T10:31:22;102325.06;;;-1.21;100.00
9257;BME280;4665;51.368;6.782;2022-12-18T10:33:47;102296.53;;;-1.31;100.00
9257;BME280;4665;51.368;6.782;2022-12-18T10:36:13;102304.97;;;-1.19;100.00
9257;BME280;4665;51.368;6.782;2022-12-18T10:38:44;102294.66;;;-1.25;100.00
9257;BME280;4665;51.368;6.782;2022-12-18T10:44:26;102309.53;;;-0.95;100.00
9257;BME280;4665;51.368;6.782;2022-12-18T10:46:55;102286.09;;;-0.99;100.00
9257;BME280;4665;51.368;6.782;2022-12-18T10:49:31;102290.31;;;-0.95;100.00
9257;BME280;4665;51.368;6.782;2022-12-18T10:54:51;102284.44;;;-0.72;100.00
9257;BME280;4665;51.368;6.782;2022-12-18T10:59:57;102280.00;;;-0.70;100.00
9257;BME280;4665;51.368;6.782;2022-12-18T11:02:43;102263.31;;;-0.66;100.00
9257;BME280;4665;51.368;6.782;2022-12-18T11:05:31;102268.25;;;-0.55;100.00
9257;BME280;4665;51.368;6.782;2022-12-18T11:07:59;102265.56;;;-0.54;100.00
9257;BME280;4665;51.368;6.782;2022-12-18T11:10:37;102276.66;;;-0.46;100.00
9257;BME280;4665;51.368;6.782;2022-12-18T11:13:15;102278.34;;;-0.43;100.00
9257;BME280;4665;51.368;6.782;2022-12-18T11:15:42;102279.88;;;-0.37;100.00
9257;BME280;4665;51.368;6.782;2022-12-18T11:18:16;102263.97;;;-0.30;100.00
9257;BME280;4665;51.368;6.782;2022-12-18T11:20:50;102262.03;;;-0.25;99.34
9257;BME280;4665;51.368;6.782;2022-12-18T11:23:16;102268.09;;;-0.23;100.00
9257;BME280;4665;51.368;6.782;2022-12-18T11:25:52;102275.69;;;-0.15;100.00
9257;BME280;4665;51.368;6.782;2022-12-18T11:33:47;102251.31;;;-0.17;100.00
9257;BME280;4665;51.368;6.782;2022-12-18T11:36:14;102247.69;;;-0.13;100.00
9257;BME280;4665;51.368;6.782;2022-12-18T11:38:42;102231.97;;;-0.13;100.00
9257;BME280;4665;51.368;6.782;2022-12-18T11:41:21;102221.38;;;-0.10;100.00
9257;BME280;4665;51.368;6.782;2022-12-18T11:44:11;102230.72;;;-0.01;100.00
9257;BME280;4665;51.368;6.782;2022-12-18T11:46:45;102196.91;;;-0.09;98.60
9257;BME280;4665;51.368;6.782;2022-12-18T11:49:32;102197.72;;;-0.07;98.02
9257;BME280;4665;51.368;6.782;2022-12-18T11:54:42;102203.66;;;-0.02;95.43
9257;BME280;4665;51.368;6.782;2022-12-18T12:03:04;102213.06;;;0.04;99.90
9257;BME280;4665;51.368;6.782;2022-12-18T12:11:16;102222.84;;;0.26;91.56
9257;BME280;4665;51.368;6.782;2022-12-18T12:16:37;102217.09;;;0.14;92.78
9257;BME280;4665;51.368;6.782;2022-12-18T12:19:19;102208.47;;;0.11;92.35
9257;BME280;4665;51.368;6.782;2022-12-18T12:25:03;102207.81;;;0.04;97.46
9257;BME280;4665;51.368;6.782;2022-12-18T12:28:07;102188.81;;;-0.03;97.18
9257;BME280;4665;51.368;6.782;2022-12-18T12:30:51;102187.38;;;0.14;91.93
9257;BME280;4665;51.368;6.782;2022-12-18T12:39:05;102194.63;;;0.07;95.15
9257;BME280;4665;51.368;6.782;2022-12-18T12:41:32;102185.03;;;0.06;95.78
9257;BME280;4665;51.368;6.782;2022-12-18T12:44:28;102178.94;;;0.06;94.20
9257;BME280;4665;51.368;6.782;2022-12-18T12:47:00;102180.44;;;0.13;92.91
9257;BME280;4665;51.368;6.782;2022-12-18T12:49:31;102173.72;;;0.06;97.26
9257;BME280;4665;51.368;6.782;2022-12-18T12:52:04;102176.22;;;0.09;94.33
9257;BME280;4665;51.368;6.782;2022-12-18T12:54:32;102170.16;;;0.07;95.32
9257;BME280;4665;51.368;6.782;2022-12-18T12:57:09;102179.06;;;0.03;97.20
9257;BME280;4665;51.368;6.782;2022-12-18T13:02:33;102167.28;;;-0.11;96.24
9257;BME280;4665;51.368;6.782;2022-12-18T13:08:02;102183.91;;;-0.12;100.00
9257;BME280;4665;51.368;6.782;2022-12-18T13:13:13;102172.63;;;-0.14;100.00
9257;BME280;4665;51.368;6.782;2022-12-18T13:18:14;102153.38;;;-0.13;100.00
9257;BME280;4665;51.368;6.782;2022-12-18T13:23:28;102145.66;;;-0.17;100.00
9257;BME280;4665;51.368;6.782;2022-12-18T13:30:59;102135.84;;;-0.11;100.00
9257;BME280;4665;51.368;6.782;2022-12-18T13:36:02;102096.88;;;-0.20;96.33
9257;BME280;4665;51.368;6.782;2022-12-18T13:38:35;102114.22;;;-0.17;97.64
9257;BME280;4665;51.368;6.782;2022-12-18T13:41:22;102119.28;;;-0.11;94.24
9257;BME280;4665;51.368;6.782;2022-12-18T13:43:50;102095.38;;;-0.27;98.18
9257;BME280;4665;51.368;6.782;2022-12-18T13:46:30;102098.47;;;-0.16;93.75
9257;BME280;4665;51.368;6.782;2022-12-18T13:51:48;102099.00;;;-0.06;95.58
9257;BME280;4665;51.368;6.782;2022-12-18T13:54:23;102096.66;;;-0.14;96.71
9257;BME280;4665;51.368;6.782;2022-12-18T13:56:50;102093.06;;;-0.11;95.32
9257;BME280;4665;51.368;6.782;2022-12-18T14:01:53;102092.50;;;-0.21;98.38
9257;BME280;4665;51.368;6.782;2022-12-18T14:04:26;102086.44;;;-0.22;97.21
9257;BME280;4665;51.368;6.782;2022-12-18T14:06:58;102064.81;;;-0.28;95.14
9257;BME280;4665;51.368;6.782;2022-12-18T14:09:30;102076.03;;;-0.23;96.62
9257;BME280;4665;51.368;6.782;2022-12-18T14:11:56;102086.38;;;-0.20;96.88
9257;BME280;4665;51.368;6.782;2022-12-18T14:14:45;102065.06;;;-0.34;97.08
9257;BME280;4665;51.368;6.782;2022-12-18T14:17:12;102083.94;;;-0.25;94.58
9257;BME280;4665;51.368;6.782;2022-12-18T14:19:42;102073.28;;;-0.20;95.39
9257;BME280;4665;51.368;6.782;2022-12-18T14:22:21;102077.88;;;-0.27;97.61
9257;BME280;4665;51.368;6.782;2022-12-18T14:27:46;102062.13;;;-0.25;94.74
9257;BME280;4665;51.368;6.782;2022-12-18T14:30:23;102063.94;;;-0.27;93.33
9257;BME280;4665;51.368;6.782;2022-12-18T14:33:03;102049.28;;;-0.33;96.36
9257;BME280;4665;51.368;6.782;2022-12-18T14:35:29;102053.50;;;-0.29;95.48
9257;BME280;4665;51.368;6.782;2022-12-18T14:38:30;102058.06;;;-0.34;95.89
9257;BME280;4665;51.368;6.782;2022-12-18T14:41:11;102057.25;;;-0.36;96.25
9257;BME280;4665;51.368;6.782;2022-12-18T14:43:42;102058.09;;;-0.35;95.99
9257;BME280;4665;51.368;6.782;2022-12-18T14:48:52;102045.59;;;-0.27;95.04
9257;BME280;4665;51.368;6.782;2022-12-18T14:51:20;102041.50;;;-0.34;94.92
9257;BME280;4665;51.368;6.782;2022-12-18T14:53:57;102045.94;;;-0.36;96.30
9257;BME280;4665;51.368;6.782;2022-12-18T14:59:12;102031.25;;;-0.42;96.05
9257;BME280;4665;51.368;6.782;2022-12-18T15:02:04;102034.63;;;-0.38;94.02